sensor_id;sensor_type;location;lat;lon;timestamp;pressure;altitude;pressure_sealevel;temperature;humidity
15529;BME280;7866;52.280;9.500;2023-02-03T00:01:42;100812.91;;;8.04;100.00
15529;BME280;7866;52.280;9.500;2023-02-03T00:06:44;100801.97;;;8.07;100.00
15529;BME280;7866;52.280;9.500;2023-02-03T00:11:48;100775.56;;;8.04;100.00
15529;BME280;7866;52.280;9.500;2023-02-03T00:16:49;100780.91;;;8.04;100.00
15529;BME280;7866;52.280;9.500;2023-02-03T00:21:51;100763.78;;;8.07;100.00
15529;BME280;7866;52.280;9.500;2023-02-03T00:26:54;100756.47;;;8.09;100.00
15529;BME280;7866;52.280;9.500;2023-02-03T00:31:56;100770.34;;;8.12;100.00
15529;BME280;7866;52.280;9.500;2023-02-03T00:36:58;100769.94;;;8.07;100.00
15529;BME280;7866;52.280;9.500;2023-02-03T00:42:02;100771.91;;;8.15;100.00
15529;BME280;7866;52.280;9.500;2023-02-03T00:47:03;100762.75;;;8.18;100.00
15529;BME280;7866;52.280;9.500;2023-02-03T00:52:05;100754.75;;;8.18;100.00
15529;BME280;7866;52.280;9.500;2023-02-03T00:57:08;100764.88;;;8.24;100.00
15529;BME280;7866;52.280;9.500;2023-02-03T01:02:10;100758.13;;;8.20;100.00
15529;BME280;7866;52.280;9.500;2023-02-03T01:07:11;100758.53;;;8.25;100.00
15529;BME280;7866;52.280;9.500;2023-02-03T01:12:14;100758.53;;;8.25;100.00
15529;BME280;7866;52.280;9.500;2023-02-03T01:17:16;100772.72;;;8.35;100.00
15529;BME280;7866;52.280;9.500;2023-02-03T01:22:18;100762.59;;;8.29;100.00
15529;BME280;7866;52.280;9.500;2023-02-03T01:27:21;100767.13;;;8.38;100.00
15529;BME280;7866;52.280;9.500;2023-02-03T01:32:23;100768.22;;;8.35;99.79
15529;BME280;7866;52.280;9.500;2023-02-03T01:37:25;100754.88;;;8.35;99.71
15529;BME280;7866;52.280;9.500;2023-02-03T01:42:31;100765.13;;;8.40;98.91
15529;BME280;7866;52.280;9.500;2023-02-03T01:47:35;100764.97;;;8.42;99.26
15529;BME280;7866;52.280;9.500;2023-02-03T01:52:41;100758.53;;;8.44;98.09
15529;BME280;7866;52.280;9.500;2023-02-03T01:57:47;100742.50;;;8.44;98.08
15529;BME280;7866;52.280;9.500;2023-02-03T02:02:52;100738.16;;;8.43;98.18
15529;BME280;7866;52.280;9.500;2023-02-03T02:07:55;100730.16;;;8.43;97.78
15529;BME280;7866;52.280;9.500;2023-02-03T02:13:00;100710.66;;;8.43;97.88
15529;BME280;7866;52.280;9.500;2023-02-03T02:18:18;100663.03;;;8.38;98.00
15529;BME280;7866;52.280;9.500;2023-02-03T02:34:51;100627.91;;;8.43;96.73
15529;BME280;7866;52.280;9.500;2023-02-03T02:40:03;100640.94;;;8.46;96.59
15529;BME280;7866;52.280;9.500;2023-02-03T02:45:13;100655.97;;;8.47;95.66
15529;BME280;7866;52.280;9.500;2023-02-03T02:50:21;100669.16;;;8.48;95.77
15529;BME280;7866;52.280;9.500;2023-02-03T02:55:26;100669.44;;;8.45;95.40
15529;BME280;7866;52.280;9.500;2023-02-03T03:00:30;100643.22;;;8.41;95.07
15529;BME280;7866;52.280;9.500;2023-02-03T03:05:33;100638.97;;;8.48;94.90
15529;BME280;7866;52.280;9.500;2023-02-03T03:10:36;100640.09;;;8.45;94.72
15529;BME280;7866;52.280;9.500;2023-02-03T03:15:39;100653.03;;;8.50;94.25
15529;BME280;7866;52.280;9.500;2023-02-03T03:20:45;100644.16;;;8.49;94.30
15529;BME280;7866;52.280;9.500;2023-02-03T03:25:50;100645.69;;;8.52;94.01
15529;BME280;7866;52.280;9.500;2023-02-03T03:30:54;100662.16;;;8.47;93.51
15529;BME280;7866;52.280;9.500;2023-02-03T03:36:00;100630.50;;;8.52;92.55
15529;BME280;7866;52.280;9.500;2023-02-03T03:41:06;100599.63;;;8.50;93.08
15529;BME280;7866;52.280;9.500;2023-02-03T03:46:12;100603.16;;;8.50;93.06
15529;BME280;7866;52.280;9.500;2023-02-03T03:51:18;100599.09;;;8.46;92.83
15529;BME280;7866;52.280;9.500;2023-02-03T03:56:25;100590.47;;;8.52;92.29
15529;BME280;7866;52.280;9.500;2023-02-03T04:01:29;100591.31;;;8.53;92.29
15529;BME280;7866;52.280;9.500;2023-02-03T04:06:32;100595.13;;;8.50;92.21
15529;BME280;7866;52.280;9.500;2023-02-03T04:11:34;100576.28;;;8.52;92.04
15529;BME280;7866;52.280;9.500;2023-02-03T04:16:53;100597.34;;;8.55;91.79
15529;BME280;7866;52.280;9.500;2023-02-03T04:21:56;100597.06;;;8.58;91.75
15529;BME280;7866;52.280;9.500;2023-02-03T04:26:58;100598.19;;;8.55;92.00
15529;BME280;7866;52.280;9.500;2023-02-03T04:31:59;100591.19;;;8.54;92.08
15529;BME280;7866;52.280;9.500;2023-02-03T04:37:02;100585.09;;;8.62;90.98
15529;BME280;7866;52.280;9.500;2023-02-03T04:42:04;100573.88;;;8.58;91.26
15529;BME280;7866;52.280;9.500;2023-02-03T04:47:06;100579.22;;;8.58;90.76
15529;BME280;7866;52.280;9.500;2023-02-03T04:52:09;100587.59;;;8.63;90.48
15529;BME280;7866;52.280;9.500;2023-02-03T04:57:11;100579.28;;;8.67;90.17
15529;BME280;7866;52.280;9.500;2023-02-03T05:02:12;100566.91;;;8.66;90.15
15529;BME280;7866;52.280;9.500;2023-02-03T05:07:15;100568.44;;;8.68;89.93
15529;BME280;7866;52.280;9.500;2023-02-03T05:12:17;100573.97;;;8.67;89.05
15529;BME280;7866;52.280;9.500;2023-02-03T05:17:19;100563.28;;;8.67;89.25
15529;BME280;7866;52.280;9.500;2023-02-03T05:22:21;100548.75;;;8.69;89.29
15529;BME280;7866;52.280;9.500;2023-02-03T05:27:23;100546.41;;;8.66;89.52
15529;BME280;7866;52.280;9.500;2023-02-03T05:32:25;100538.25;;;8.68;89.27
15529;BME280;7866;52.280;9.500;2023-02-03T05:37:28;100520.56;;;8.67;89.38
15529;BME280;7866;52.280;9.500;2023-02-03T05:42:29;100552.34;;;8.60;90.83
15529;BME280;7866;52.280;9.500;2023-02-03T05:47:31;100545.38;;;8.49;92.06
15529;BME280;7866;52.280;9.500;2023-02-03T05:52:34;100549.69;;;8.42;93.57
15529;BME280;7866;52.280;9.500;2023-02-03T05:57:35;100522.38;;;8.48;93.57
15529;BME280;7866;52.280;9.500;2023-02-03T06:02:37;100524.66;;;8.43;93.61
15529;BME280;7866;52.280;9.500;2023-02-03T06:07:40;100510.06;;;8.37;94.45
15529;BME280;7866;52.280;9.500;2023-02-03T06:12:41;100542.22;;;8.36;95.50
15529;BME280;7866;52.280;9.500;2023-02-03T06:17:44;100523.72;;;8.34;95.74
15529;BME280;7866;52.280;9.500;2023-02-03T06:22:47;100525.41;;;8.26;96.41
15529;BME280;7866;52.280;9.500;2023-02-03T06:27:49;100542.41;;;8.25;98.12
15529;BME280;7866;52.280;9.500;2023-02-03T06:32:50;100525.41;;;8.26;98.42
15529;BME280;7866;52.280;9.500;2023-02-03T06:37:53;100547.66;;;8.17;99.43
15529;BME280;7866;52.280;9.500;2023-02-03T06:42:55;100525.56;;;8.24;100.00
15529;BME280;7866;52.280;9.500;2023-02-03T06:47:56;100536.25;;;8.24;100.00
15529;BME280;7866;52.280;9.500;2023-02-03T06:52:59;100521.91;;;8.25;99.97
15529;BME280;7866;52.280;9.500;2023-02-03T06:58:01;100524.44;;;8.27;100.00
15529;BME280;7866;52.280;9.500;2023-02-03T07:03:02;100523.63;;;8.26;100.00
15529;BME280;7866;52.280;9.500;2023-02-03T07:08:05;100528.09;;;8.26;100.00
15529;BME280;7866;52.280;9.500;2023-02-03T07:13:07;100527.41;;;8.24;100.00
15529;BME280;7866;52.280;9.500;2023-02-03T07:18:09;100509.72;;;8.23;100.00
15529;BME280;7866;52.280;9.500;2023-02-03T07:23:12;100525.03;;;8.21;100.00
15529;BME280;7866;52.280;9.500;2023-02-03T07:28:14;100525.88;;;8.21;100.00
15529;BME280;7866;52.280;9.500;2023-02-03T07:33:15;100510.69;;;8.22;100.00
15529;BME280;7866;52.280;9.500;2023-02-03T07:38:19;100494.41;;;8.25;100.00
15529;BME280;7866;52.280;9.500;2023-02-03T07:43:21;100486.69;;;8.22;100.00
15529;BME280;7866;52.280;9.500;2023-02-03T07:48:22;100490.72;;;8.26;100.00
15529;BME280;7866;52.280;9.500;2023-02-03T07:53:26;100494.09;;;8.28;100.00
15529;BME280;7866;52.280;9.500;2023-02-03T07:58:27;100502.81;;;8.30;100.00
15529;BME280;7866;52.280;9.500;2023-02-03T08:03:30;100502.81;;;8.30;100.00
15529;BME280;7866;52.280;9.500;2023-02-03T08:08:33;100476.97;;;8.30;100.00
15529;BME280;7866;52.280;9.500;2023-02-03T08:13:34;100485.81;;;8.31;100.00
15529;BME280;7866;52.280;9.500;2023-02-03T08:18:36;100503.59;;;8.40;100.00
15529;BME280;7866;52.280;9.500;2023-02-03T08:23:39;100495.69;;;8.48;100.00
15529;BME280;7866;52.280;9.500;2023-02-03T08:28:41;100461.75;;;8.58;100.00
15529;BME280;7866;52.280;9.500;2023-02-03T08:33:42;100464.97;;;8.62;100.00
15529;BME280;7866;52.280;9.500;2023-02-03T08:38:46;100508.72;;;8.69;100.00
15529;BME280;7866;52.280;9.500;2023-02-03T08:43:47;100491.56;;;8.72;100.00
15529;BME280;7866;52.280;9.500;2023-02-03T08:48:50;100491.41;;;8.73;100.00
15529;BME280;7866;52.280;9.500;2023-02-03T08:53:53;100497.97;;;8.79;100.00
15529;BME280;7866;52.280;9.500;2023-02-03T08:58:55;100494.84;;;8.83;100.00
15529;BME280;7866;52.280;9.500;2023-02-03T09:03:56;100502.84;;;8.83;100.00
15529;BME280;7866;52.280;9.500;2023-02-03T09:09:02;100520.59;;;8.93;100.00
15529;BME280;7866;52.280;9.500;2023-02-03T09:14:04;100489.25;;;8.95;99.16
15529;BME280;7866;52.280;9.500;2023-02-03T09:19:05;100488.16;;;9.05;97.53
15529;BME280;7866;52.280;9.500;2023-02-03T09:24:08;100498.84;;;9.05;97.03
15529;BME280;7866;52.280;9.500;2023-02-03T09:29:10;100508.75;;;9.13;95.67
15529;BME280;7866;52.280;9.500;2023-02-03T09:34:12;100528.81;;;9.17;95.70
15529;BME280;7866;52.280;9.500;2023-02-03T09:39:15;100516.34;;;9.00;97.98
15529;BME280;7866;52.280;9.500;2023-02-03T09:44:21;100517.81;;;8.94;99.51
15529;BME280;7866;52.280;9.500;2023-02-03T09:49:32;100517.81;;;8.94;99.74
15529;BME280;7866;52.280;9.500;2023-02-03T09:54:42;100529.09;;;8.88;100.00
15529;BME280;7866;52.280;9.500;2023-02-03T09:59:46;100530.75;;;8.89;100.00
15529;BME280;7866;52.280;9.500;2023-02-03T10:04:53;100549.16;;;8.74;100.00
15529;BME280;7866;52.280;9.500;2023-02-03T10:10:03;100530.16;;;8.77;100.00
15529;BME280;7866;52.280;9.500;2023-02-03T10:15:26;100511.16;;;8.80;100.00
15529;BME280;7866;52.280;9.500;2023-02-03T10:20:36;100518.81;;;8.75;100.00
15529;BME280;7866;52.280;9.500;2023-02-03T10:25:43;100529.56;;;8.83;100.00
15529;BME280;7866;52.280;9.500;2023-02-03T10:30:48;100542.91;;;8.83;100.00
15529;BME280;7866;52.280;9.500;2023-02-03T10:35:52;100520.91;;;8.89;100.00
15529;BME280;7866;52.280;9.500;2023-02-03T10:40:57;100544.28;;;8.87;100.00
15529;BME280;7866;52.280;9.500;2023-02-03T10:45:58;100578.09;;;8.79;100.00
15529;BME280;7866;52.280;9.500;2023-02-03T10:51:01;100590.44;;;8.80;100.00
15529;BME280;7866;52.280;9.500;2023-02-03T10:56:07;100545.56;;;8.83;100.00
15529;BME280;7866;52.280;9.500;2023-02-03T11:01:12;100548.53;;;8.80;99.55
15529;BME280;7866;52.280;9.500;2023-02-03T11:06:16;100576.50;;;8.86;97.93
15529;BME280;7866;52.280;9.500;2023-02-03T11:11:23;100559.16;;;8.90;97.21
15529;BME280;7866;52.280;9.500;2023-02-03T11:16:25;100551.22;;;8.98;96.63
15529;BME280;7866;52.280;9.500;2023-02-03T11:21:29;100556.78;;;9.05;95.97
15529;BME280;7866;52.280;9.500;2023-02-03T11:26:40;100581.66;;;9.05;96.29
15529;BME280;7866;52.280;9.500;2023-02-03T11:31:46;100580.16;;;9.03;95.31
15529;BME280;7866;52.280;9.500;2023-02-03T11:36:49;100593.13;;;9.16;94.99
15529;BME280;7866;52.280;9.500;2023-02-03T11:41:52;100609.44;;;9.12;94.08
15529;BME280;7866;52.280;9.500;2023-02-03T11:46:56;100618.16;;;9.15;94.28
15529;BME280;7866;52.280;9.500;2023-02-03T11:52:05;100608.13;;;9.17;92.71
15529;BME280;7866;52.280;9.500;2023-02-03T11:57:26;100598.16;;;9.19;91.92
15529;BME280;7866;52.280;9.500;2023-02-03T12:08:12;100613.63;;;9.33;89.86
15529;BME280;7866;52.280;9.500;2023-02-03T12:18:50;100609.41;;;9.48;87.90
15529;BME280;7866;52.280;9.500;2023-02-03T12:24:03;100640.81;;;9.46;87.91
15529;BME280;7866;52.280;9.500;2023-02-03T12:29:10;100640.19;;;9.52;86.71
15529;BME280;7866;52.280;9.500;2023-02-03T12:34:17;100636.50;;;9.53;87.20
15529;BME280;7866;52.280;9.500;2023-02-03T12:39:25;100638.09;;;9.64;86.77
15529;BME280;7866;52.280;9.500;2023-02-03T12:44:33;100628.19;;;9.56;86.46
15529;BME280;7866;52.280;9.500;2023-02-03T12:49:41;100644.94;;;9.58;86.11
15529;BME280;7866;52.280;9.500;2023-02-03T12:54:48;100644.28;;;9.65;85.66
15529;BME280;7866;52.280;9.500;2023-02-03T13:00:15;100639.28;;;9.61;84.39
15529;BME280;7866;52.280;9.500;2023-02-03T13:05:22;100652.84;;;9.68;82.21
15529;BME280;7866;52.280;9.500;2023-02-03T13:10:28;100650.94;;;9.78;81.89
15529;BME280;7866;52.280;9.500;2023-02-03T13:15:37;100660.63;;;9.79;78.54
15529;BME280;7866;52.280;9.500;2023-02-03T13:20:40;100671.25;;;9.71;73.14
15529;BME280;7866;52.280;9.500;2023-02-03T13:25:55;100662.69;;;9.85;77.44
15529;BME280;7866;52.280;9.500;2023-02-03T13:31:13;100677.91;;;9.67;73.97
15529;BME280;7866;52.280;9.500;2023-02-03T13:41:49;100661.88;;;9.67;75.15
15529;BME280;7866;52.280;9.500;2023-02-03T13:46:55;100659.81;;;9.61;72.93
15529;BME280;7866;52.280;9.500;2023-02-03T13:51:58;100678.16;;;9.56;69.29
15529;BME280;7866;52.280;9.500;2023-02-03T13:57:02;100683.19;;;9.59;70.74
15529;BME280;7866;52.280;9.500;2023-02-03T14:02:38;100689.97;;;9.53;68.47
15529;BME280;7866;52.280;9.500;2023-02-03T14:07:41;100696.19;;;9.54;68.75
15529;BME280;7866;52.280;9.500;2023-02-03T14:12:57;100706.44;;;9.58;67.19
15529;BME280;7866;52.280;9.500;2023-02-03T14:18:03;100700.25;;;9.58;71.57
15529;BME280;7866;52.280;9.500;2023-02-03T14:23:09;100716.22;;;9.50;69.42
15529;BME280;7866;52.280;9.500;2023-02-03T14:28:13;100733.22;;;9.49;69.98
15529;BME280;7866;52.280;9.500;2023-02-03T14:33:17;100722.63;;;9.39;68.43
15529;BME280;7866;52.280;9.500;2023-02-03T14:38:30;100728.97;;;9.38;69.95
15529;BME280;7866;52.280;9.500;2023-02-03T14:43:37;100743.66;;;9.24;68.63
15529;BME280;7866;52.280;9.500;2023-02-03T14:48:51;100752.22;;;9.28;70.13
15529;BME280;7866;52.280;9.500;2023-02-03T14:54:09;100751.84;;;9.23;70.00
15529;BME280;7866;52.280;9.500;2023-02-03T14:59:16;100757.78;;;9.17;70.92
15529;BME280;7866;52.280;9.500;2023-02-03T15:04:22;100748.94;;;9.16;71.86
15529;BME280;7866;52.280;9.500;2023-02-03T15:09:28;100753.72;;;9.12;72.55
15529;BME280;7866;52.280;9.500;2023-02-03T15:14:31;100762.34;;;9.06;71.26
15529;BME280;7866;52.280;9.500;2023-02-03T15:19:38;100774.53;;;8.91;67.71
15529;BME280;7866;52.280;9.500;2023-02-03T15:24:40;100774.53;;;8.81;68.78
15529;BME280;7866;52.280;9.500;2023-02-03T15:29:41;100773.59;;;8.73;69.84
15529;BME280;7866;52.280;9.500;2023-02-03T15:34:46;100784.16;;;8.64;70.83
15529;BME280;7866;52.280;9.500;2023-02-03T15:39:55;100799.41;;;8.54;71.14
15529;BME280;7866;52.280;9.500;2023-02-03T15:45:01;100786.47;;;8.50;70.24
15529;BME280;7866;52.280;9.500;2023-02-03T15:50:23;100807.28;;;8.46;70.97
15529;BME280;7866;52.280;9.500;2023-02-03T15:55:31;100795.22;;;8.42;70.75
15529;BME280;7866;52.280;9.500;2023-02-03T16:00:37;100826.81;;;8.37;71.11
15529;BME280;7866;52.280;9.500;2023-02-03T16:05:42;100839.19;;;8.38;71.13
15529;BME280;7866;52.280;9.500;2023-02-03T16:10:47;100865.28;;;8.34;71.40
15529;BME280;7866;52.280;9.500;2023-02-03T16:16:01;100857.81;;;8.28;71.77
15529;BME280;7866;52.280;9.500;2023-02-03T16:21:31;100863.75;;;8.22;70.12
15529;BME280;7866;52.280;9.500;2023-02-03T16:26:33;100875.53;;;8.20;70.43
15529;BME280;7866;52.280;9.500;2023-02-03T16:31:42;100889.84;;;8.19;70.42
15529;BME280;7866;52.280;9.500;2023-02-03T16:37:10;100881.72;;;8.20;70.20
15529;BME280;7866;52.280;9.500;2023-02-03T16:42:36;100887.63;;;8.14;69.83
15529;BME280;7866;52.280;9.500;2023-02-03T16:47:55;100899.13;;;8.14;70.54
15529;BME280;7866;52.280;9.500;2023-02-03T16:53:19;100896.00;;;8.09;70.08
15529;BME280;7866;52.280;9.500;2023-02-03T16:58:21;100910.75;;;8.04;71.68
15529;BME280;7866;52.280;9.500;2023-02-03T17:03:25;100908.41;;;8.10;71.02
15529;BME280;7866;52.280;9.500;2023-02-03T17:08:28;100924.81;;;8.06;71.34
15529;BME280;7866;52.280;9.500;2023-02-03T17:13:30;100912.59;;;8.03;70.94
15529;BME280;7866;52.280;9.500;2023-02-03T17:18:32;100929.69;;;8.01;71.36
15529;BME280;7866;52.280;9.500;2023-02-03T17:23:35;100928.59;;;8.03;71.63
15529;BME280;7866;52.280;9.500;2023-02-03T17:28:38;100927.88;;;8.01;71.89
15529;BME280;7866;52.280;9.500;2023-02-03T17:33:40;100932.78;;;7.96;72.29
15529;BME280;7866;52.280;9.500;2023-02-03T17:38:45;100933.34;;;7.90;71.71
15529;BME280;7866;52.280;9.500;2023-02-03T17:43:48;100930.38;;;7.93;71.97
15529;BME280;7866;52.280;9.500;2023-02-03T17:48:50;100939.78;;;7.87;72.46
15529;BME280;7866;52.280;9.500;2023-02-03T17:53:55;100949.63;;;7.87;71.56
15529;BME280;7866;52.280;9.500;2023-02-03T17:59:00;100961.09;;;7.78;71.84
15529;BME280;7866;52.280;9.500;2023-02-03T18:04:03;100969.53;;;7.83;72.87
15529;BME280;7866;52.280;9.500;2023-02-03T18:09:07;100965.28;;;7.71;72.40
15529;BME280;7866;52.280;9.500;2023-02-03T18:14:11;100983.50;;;7.65;72.97
15529;BME280;7866;52.280;9.500;2023-02-03T18:19:14;100982.63;;;7.55;73.13
15529;BME280;7866;52.280;9.500;2023-02-03T18:24:17;100987.53;;;7.50;72.98
15529;BME280;7866;52.280;9.500;2023-02-03T18:29:21;100995.34;;;7.42;73.12
15529;BME280;7866;52.280;9.500;2023-02-03T18:34:25;101015.19;;;7.38;73.84
15529;BME280;7866;52.280;9.500;2023-02-03T18:39:28;101011.13;;;7.34;74.59
15529;BME280;7866;52.280;9.500;2023-02-03T18:44:30;100988.97;;;7.33;74.27
15529;BME280;7866;52.280;9.500;2023-02-03T18:49:33;100995.53;;;7.29;74.42
15529;BME280;7866;52.280;9.500;2023-02-03T18:54:37;101022.44;;;7.26;75.07
15529;BME280;7866;52.280;9.500;2023-02-03T18:59:39;101026.22;;;7.24;75.29
15529;BME280;7866;52.280;9.500;2023-02-03T19:04:40;101034.25;;;7.12;75.97
15529;BME280;7866;52.280;9.500;2023-02-03T19:09:44;101055.06;;;7.19;76.48
15529;BME280;7866;52.280;9.500;2023-02-03T19:14:45;101050.84;;;7.16;76.13
15529;BME280;7866;52.280;9.500;2023-02-03T19:19:47;101053.09;;;7.21;76.12
15529;BME280;7866;52.280;9.500;2023-02-03T19:24:50;101071.34;;;7.25;76.09
15529;BME280;7866;52.280;9.500;2023-02-03T19:29:51;101059.88;;;7.25;76.16
15529;BME280;7866;52.280;9.500;2023-02-03T19:34:53;101075.50;;;7.18;77.08
15529;BME280;7866;52.280;9.500;2023-02-03T19:39:56;101099.63;;;7.16;77.26
15529;BME280;7866;52.280;9.500;2023-02-03T19:44:58;101109.47;;;7.05;78.44
15529;BME280;7866;52.280;9.500;2023-02-03T19:49:59;101111.47;;;6.91;80.84
15529;BME280;7866;52.280;9.500;2023-02-03T19:55:03;101127.63;;;6.79;82.51
15529;BME280;7866;52.280;9.500;2023-02-03T20:00:05;101145.44;;;6.67;83.70
15529;BME280;7866;52.280;9.500;2023-02-03T20:05:07;101159.34;;;6.59;85.27
15529;BME280;7866;52.280;9.500;2023-02-03T20:10:12;101147.50;;;6.52;86.13
15529;BME280;7866;52.280;9.500;2023-02-03T20:15:14;101144.63;;;6.44;86.06
15529;BME280;7866;52.280;9.500;2023-02-03T20:20:16;101149.09;;;6.44;87.24
15529;BME280;7866;52.280;9.500;2023-02-03T20:25:19;101150.78;;;6.45;87.61
15529;BME280;7866;52.280;9.500;2023-02-03T20:30:21;101169.78;;;6.51;86.06
15529;BME280;7866;52.280;9.500;2023-02-03T20:35:23;101170.97;;;6.47;87.80
15529;BME280;7866;52.280;9.500;2023-02-03T20:40:27;101166.72;;;6.56;86.69
15529;BME280;7866;52.280;9.500;2023-02-03T20:45:28;101168.56;;;6.55;87.10
15529;BME280;7866;52.280;9.500;2023-02-03T20:50:30;101201.81;;;6.61;86.58
15529;BME280;7866;52.280;9.500;2023-02-03T20:55:33;101199.28;;;6.71;84.87
15529;BME280;7866;52.280;9.500;2023-02-03T21:00:35;101192.50;;;6.66;84.49
15529;BME280;7866;52.280;9.500;2023-02-03T21:05:40;101198.41;;;6.70;84.42
15529;BME280;7866;52.280;9.500;2023-02-03T21:10:45;101218.13;;;6.79;83.95
15529;BME280;7866;52.280;9.500;2023-02-03T21:15:47;101208.44;;;6.78;83.49
15529;BME280;7866;52.280;9.500;2023-02-03T21:20:49;101211.22;;;6.76;83.46
15529;BME280;7866;52.280;9.500;2023-02-03T21:25:53;101230.34;;;6.81;82.79
15529;BME280;7866;52.280;9.500;2023-02-03T21:30:54;101235.41;;;6.84;82.71
15529;BME280;7866;52.280;9.500;2023-02-03T21:35:58;101239.16;;;6.82;82.56
15529;BME280;7866;52.280;9.500;2023-02-03T21:41:01;101240.03;;;6.82;82.91
15529;BME280;7866;52.280;9.500;2023-02-03T21:46:02;101245.69;;;6.89;82.50
15529;BME280;7866;52.280;9.500;2023-02-03T21:51:12;101250.56;;;6.84;82.68
15529;BME280;7866;52.280;9.500;2023-02-03T21:56:18;101253.44;;;6.92;82.68
15529;BME280;7866;52.280;9.500;2023-02-03T22:01:22;101273.78;;;6.93;82.57
15529;BME280;7866;52.280;9.500;2023-02-03T22:06:26;101279.34;;;6.90;82.23
15529;BME280;7866;52.280;9.500;2023-02-03T22:11:30;101297.88;;;6.91;81.62
15529;BME280;7866;52.280;9.500;2023-02-03T22:16:32;101319.28;;;6.90;81.70
15529;BME280;7866;52.280;9.500;2023-02-03T22:21:34;101312.03;;;6.92;81.96
15529;BME280;7866;52.280;9.500;2023-02-03T22:26:37;101317.97;;;6.96;81.92
15529;BME280;7866;52.280;9.500;2023-02-03T22:31:39;101328.97;;;6.91;82.21
15529;BME280;7866;52.280;9.500;2023-02-03T22:36:42;101333.94;;;6.84;82.72
15529;BME280;7866;52.280;9.500;2023-02-03T22:41:45;101350.75;;;6.85;82.63
15529;BME280;7866;52.280;9.500;2023-02-03T22:46:46;101347.84;;;6.88;82.61
15529;BME280;7866;52.280;9.500;2023-02-03T22:51:48;101368.91;;;6.80;84.01
15529;BME280;7866;52.280;9.500;2023-02-03T22:56:51;101384.84;;;6.69;85.67
15529;BME280;7866;52.280;9.500;2023-02-03T23:01:52;101401.78;;;6.56;87.66
15529;BME280;7866;52.280;9.500;2023-02-03T23:06:54;101391.31;;;6.42;89.74
15529;BME280;7866;52.280;9.500;2023-02-03T23:11:57;101417.78;;;6.32;90.99
15529;BME280;7866;52.280;9.500;2023-02-03T23:16:59;101414.38;;;6.30;91.91
15529;BME280;7866;52.280;9.500;2023-02-03T23:22:00;101443.25;;;6.24;93.16
15529;BME280;7866;52.280;9.500;2023-02-03T23:27:03;101445.44;;;6.30;92.42
15529;BME280;7866;52.280;9.500;2023-02-03T23:32:06;101457.81;;;6.31;92.74
15529;BME280;7866;52.280;9.500;2023-02-03T23:37:07;101485.53;;;6.15;94.63
15529;BME280;7866;52.280;9.500;2023-02-03T23:42:10;101493.44;;;6.04;95.71
15529;BME280;7866;52.280;9.500;2023-02-03T23:47:12;101498.34;;;6.10;94.23
15529;BME280;7866;52.280;9.500;2023-02-03T23:52:14;101521.63;;;6.07;94.87
15529;BME280;7866;52.280;9.500;2023-02-03T23:57:17;101525.44;;;5.90;94.29
